sensor_id;sensor_type;location;lat;lon;timestamp;pressure;altitude;pressure_sealevel;temperature;humidity
35224;BME280;21367;51.930;8.112;2023-04-01T00:00:27;98793.94;;;9.55;100.00
35224;BME280;21367;51.930;8.112;2023-04-01T00:05:33;98795.34;;;9.35;100.00
35224;BME280;21367;51.930;8.112;2023-04-01T00:10:37;98787.66;;;9.35;100.00
35224;BME280;21367;51.930;8.112;2023-04-01T00:15:41;98790.41;;;9.48;100.00
35224;BME280;21367;51.930;8.112;2023-04-01T00:20:50;98792.88;;;9.41;100.00
35224;BME280;21367;51.930;8.112;2023-04-01T00:25:54;98791.22;;;9.44;100.00
35224;BME280;21367;51.930;8.112;2023-04-01T00:30:58;98788.53;;;9.37;100.00
35224;BME280;21367;51.930;8.112;2023-04-01T00:36:12;98782.47;;;9.32;100.00
35224;BME280;21367;51.930;8.112;2023-04-01T00:41:18;98783.25;;;9.26;100.00
35224;BME280;21367;51.930;8.112;2023-04-01T00:46:22;98778.16;;;9.27;100.00
35224;BME280;21367;51.930;8.112;2023-04-01T00:51:29;98779.16;;;9.37;100.00
35224;BME280;21367;51.930;8.112;2023-04-01T00:56:35;98778.50;;;9.50;100.00
35224;BME280;21367;51.930;8.112;2023-04-01T01:01:41;98779.22;;;9.40;100.00
35224;BME280;21367;51.930;8.112;2023-04-01T01:06:51;98775.03;;;9.48;100.00
35224;BME280;21367;51.930;8.112;2023-04-01T01:12:05;98771.22;;;9.22;100.00
35224;BME280;21367;51.930;8.112;2023-04-01T01:17:14;98768.75;;;9.30;100.00
35224;BME280;21367;51.930;8.112;2023-04-01T01:22:37;98769.75;;;9.38;100.00
35224;BME280;21367;51.930;8.112;2023-04-01T01:27:54;98762.63;;;9.18;100.00
35224;BME280;21367;51.930;8.112;2023-04-01T01:39:09;98760.22;;;9.31;100.00
35224;BME280;21367;51.930;8.112;2023-04-01T01:44:14;98767.66;;;9.12;100.00
35224;BME280;21367;51.930;8.112;2023-04-01T01:49:19;98766.03;;;9.19;100.00
35224;BME280;21367;51.930;8.112;2023-04-01T01:54:26;98769.00;;;8.90;100.00
35224;BME280;21367;51.930;8.112;2023-04-01T01:59:35;98763.34;;;9.11;100.00
35224;BME280;21367;51.930;8.112;2023-04-01T02:04:42;98763.47;;;9.19;100.00
35224;BME280;21367;51.930;8.112;2023-04-01T02:09:50;98759.59;;;8.91;100.00
35224;BME280;21367;51.930;8.112;2023-04-01T02:14:58;98768.25;;;8.99;100.00
35224;BME280;21367;51.930;8.112;2023-04-01T02:20:09;98769.31;;;9.12;100.00
35224;BME280;21367;51.930;8.112;2023-04-01T02:25:20;98764.03;;;8.99;100.00
35224;BME280;21367;51.930;8.112;2023-04-01T02:30:26;98764.69;;;8.89;100.00
35224;BME280;21367;51.930;8.112;2023-04-01T02:35:32;98758.16;;;9.08;100.00
35224;BME280;21367;51.930;8.112;2023-04-01T02:40:50;98761.53;;;9.06;100.00
35224;BME280;21367;51.930;8.112;2023-04-01T02:45:54;98752.22;;;9.11;100.00
35224;BME280;21367;51.930;8.112;2023-04-01T02:50:58;98756.34;;;8.99;100.00
35224;BME280;21367;51.930;8.112;2023-04-01T02:56:05;98760.69;;;9.05;100.00
35224;BME280;21367;51.930;8.112;2023-04-01T03:01:08;98765.75;;;9.02;100.00
35224;BME280;21367;51.930;8.112;2023-04-01T03:06:14;98766.91;;;9.21;100.00
35224;BME280;21367;51.930;8.112;2023-04-01T03:11:21;98775.25;;;9.08;100.00
35224;BME280;21367;51.930;8.112;2023-04-01T03:16:26;98764.94;;;9.04;100.00
35224;BME280;21367;51.930;8.112;2023-04-01T03:21:30;98771.94;;;9.13;100.00
35224;BME280;21367;51.930;8.112;2023-04-01T03:26:37;98758.97;;;9.06;100.00
35224;BME280;21367;51.930;8.112;2023-04-01T03:31:41;98757.09;;;8.95;100.00
35224;BME280;21367;51.930;8.112;2023-04-01T03:36:45;98764.16;;;9.09;100.00
35224;BME280;21367;51.930;8.112;2023-04-01T03:41:51;98758.06;;;9.00;100.00
35224;BME280;21367;51.930;8.112;2023-04-01T03:46:55;98761.50;;;9.02;100.00
35224;BME280;21367;51.930;8.112;2023-04-01T03:51:58;98768.31;;;9.00;100.00
35224;BME280;21367;51.930;8.112;2023-04-01T03:57:05;98775.19;;;9.03;100.00
35224;BME280;21367;51.930;8.112;2023-04-01T04:02:09;98770.88;;;9.02;100.00
35224;BME280;21367;51.930;8.112;2023-04-01T04:07:15;98776.84;;;9.01;100.00
35224;BME280;21367;51.930;8.112;2023-04-01T04:12:40;98768.03;;;8.87;100.00
35224;BME280;21367;51.930;8.112;2023-04-01T04:17:44;98777.53;;;8.91;100.00
35224;BME280;21367;51.930;8.112;2023-04-01T04:22:49;98773.91;;;8.78;100.00
35224;BME280;21367;51.930;8.112;2023-04-01T04:27:55;98780.00;;;8.86;100.00
35224;BME280;21367;51.930;8.112;2023-04-01T04:32:59;98783.34;;;8.82;100.00
35224;BME280;21367;51.930;8.112;2023-04-01T04:38:03;98785.84;;;8.77;100.00
35224;BME280;21367;51.930;8.112;2023-04-01T04:43:10;98792.00;;;8.89;100.00
35224;BME280;21367;51.930;8.112;2023-04-01T04:48:15;98793.69;;;8.88;100.00
35224;BME280;21367;51.930;8.112;2023-04-01T04:53:20;98795.41;;;8.88;100.00
35224;BME280;21367;51.930;8.112;2023-04-01T04:58:28;98803.91;;;8.87;100.00
35224;BME280;21367;51.930;8.112;2023-04-01T05:03:32;98803.72;;;8.74;100.00
35224;BME280;21367;51.930;8.112;2023-04-01T05:08:36;98809.97;;;8.90;100.00
35224;BME280;21367;51.930;8.112;2023-04-01T05:13:44;98810.09;;;8.98;100.00
35224;BME280;21367;51.930;8.112;2023-04-01T05:18:48;98807.25;;;8.83;100.00
35224;BME280;21367;51.930;8.112;2023-04-01T05:23:52;98811.72;;;8.93;100.00
35224;BME280;21367;51.930;8.112;2023-04-01T05:28:58;98817.00;;;9.02;100.00
35224;BME280;21367;51.930;8.112;2023-04-01T05:34:02;98825.13;;;8.79;100.00
35224;BME280;21367;51.930;8.112;2023-04-01T05:39:06;98822.75;;;8.89;100.00
35224;BME280;21367;51.930;8.112;2023-04-01T05:44:12;98831.31;;;8.91;100.00
35224;BME280;21367;51.930;8.112;2023-04-01T05:49:16;98840.00;;;8.99;100.00
35224;BME280;21367;51.930;8.112;2023-04-01T05:54:21;98837.22;;;8.87;100.00
35224;BME280;21367;51.930;8.112;2023-04-01T05:59:27;98845.06;;;8.94;100.00
35224;BME280;21367;51.930;8.112;2023-04-01T06:04:36;98845.00;;;8.93;100.00
35224;BME280;21367;51.930;8.112;2023-04-01T06:09:41;98846.88;;;9.00;100.00
35224;BME280;21367;51.930;8.112;2023-04-01T06:14:53;98849.44;;;9.01;100.00
35224;BME280;21367;51.930;8.112;2023-04-01T06:20:04;98860.66;;;9.08;100.00
35224;BME280;21367;51.930;8.112;2023-04-01T06:25:33;98859.78;;;9.06;100.00
35224;BME280;21367;51.930;8.112;2023-04-01T06:30:44;98862.59;;;9.20;100.00
35224;BME280;21367;51.930;8.112;2023-04-01T06:36:09;98862.41;;;9.11;100.00
35224;BME280;21367;51.930;8.112;2023-04-01T06:46:48;98873.06;;;9.34;100.00
35224;BME280;21367;51.930;8.112;2023-04-01T06:52:20;98875.50;;;9.26;100.00
35224;BME280;21367;51.930;8.112;2023-04-01T06:57:47;98871.56;;;9.43;100.00
35224;BME280;21367;51.930;8.112;2023-04-01T07:03:02;98879.31;;;9.48;100.00
35224;BME280;21367;51.930;8.112;2023-04-01T07:08:11;98876.19;;;9.66;100.00
35224;BME280;21367;51.930;8.112;2023-04-01T07:13:21;98880.00;;;9.91;100.00
35224;BME280;21367;51.930;8.112;2023-04-01T07:18:37;98890.03;;;9.77;100.00
35224;BME280;21367;51.930;8.112;2023-04-01T07:23:44;98893.81;;;10.01;100.00
35224;BME280;21367;51.930;8.112;2023-04-01T07:29:09;98903.09;;;9.91;100.00
35224;BME280;21367;51.930;8.112;2023-04-01T07:34:24;98895.34;;;9.89;100.00
35224;BME280;21367;51.930;8.112;2023-04-01T07:39:37;98904.75;;;9.87;100.00
35224;BME280;21367;51.930;8.112;2023-04-01T07:45:13;98917.06;;;10.11;100.00
35224;BME280;21367;51.930;8.112;2023-04-01T07:50:26;98932.81;;;10.31;100.00
35224;BME280;21367;51.930;8.112;2023-04-01T07:55:34;98926.06;;;10.38;100.00
35224;BME280;21367;51.930;8.112;2023-04-01T08:00:46;98930.53;;;10.51;100.00
35224;BME280;21367;51.930;8.112;2023-04-01T08:06:09;98917.09;;;10.72;100.00
35224;BME280;21367;51.930;8.112;2023-04-01T08:11:22;98939.75;;;10.38;100.00
35224;BME280;21367;51.930;8.112;2023-04-01T08:16:55;98943.50;;;10.62;100.00
35224;BME280;21367;51.930;8.112;2023-04-01T08:22:15;98944.50;;;10.75;100.00
35224;BME280;21367;51.930;8.112;2023-04-01T08:27:28;98959.16;;;10.79;100.00
35224;BME280;21367;51.930;8.112;2023-04-01T08:32:36;98961.88;;;10.91;100.00
35224;BME280;21367;51.930;8.112;2023-04-01T08:37:45;98959.53;;;11.09;100.00
35224;BME280;21367;51.930;8.112;2023-04-01T08:43:02;98961.78;;;11.60;100.00
35224;BME280;21367;51.930;8.112;2023-04-01T08:48:45;98960.38;;;11.11;100.00
35224;BME280;21367;51.930;8.112;2023-04-01T08:54:20;98969.09;;;11.23;100.00
35224;BME280;21367;51.930;8.112;2023-04-01T08:59:44;98977.94;;;11.49;100.00
35224;BME280;21367;51.930;8.112;2023-04-01T09:05:36;98975.06;;;11.20;100.00
35224;BME280;21367;51.930;8.112;2023-04-01T09:22:13;98988.53;;;11.78;100.00
35224;BME280;21367;51.930;8.112;2023-04-01T09:27:31;98994.69;;;11.91;100.00
35224;BME280;21367;51.930;8.112;2023-04-01T09:32:52;98989.66;;;12.03;100.00
35224;BME280;21367;51.930;8.112;2023-04-01T09:38:18;98997.66;;;12.40;100.00
35224;BME280;21367;51.930;8.112;2023-04-01T09:43:39;99003.63;;;12.35;100.00
35224;BME280;21367;51.930;8.112;2023-04-01T09:49:17;99002.75;;;12.34;100.00
35224;BME280;21367;51.930;8.112;2023-04-01T09:54:36;99018.97;;;12.19;100.00
35224;BME280;21367;51.930;8.112;2023-04-01T10:17:08;99030.22;;;12.31;100.00
35224;BME280;21367;51.930;8.112;2023-04-01T10:22:34;99035.19;;;12.11;100.00
35224;BME280;21367;51.930;8.112;2023-04-01T10:28:04;99042.25;;;12.32;100.00
35224;BME280;21367;51.930;8.112;2023-04-01T10:51:14;99045.66;;;12.31;100.00
35224;BME280;21367;51.930;8.112;2023-04-01T10:56:33;99044.38;;;12.94;100.00
35224;BME280;21367;51.930;8.112;2023-04-01T11:08:20;99060.47;;;12.59;100.00
35224;BME280;21367;51.930;8.112;2023-04-01T11:19:41;99069.06;;;12.54;100.00
35224;BME280;21367;51.930;8.112;2023-04-01T11:31:00;99068.16;;;12.53;100.00
35224;BME280;21367;51.930;8.112;2023-04-01T11:36:14;99078.59;;;11.77;100.00
35224;BME280;21367;51.930;8.112;2023-04-01T11:41:30;99082.38;;;12.07;100.00
35224;BME280;21367;51.930;8.112;2023-04-01T11:47:18;99085.00;;;12.16;100.00
35224;BME280;21367;51.930;8.112;2023-04-01T11:52:32;99090.69;;;11.84;100.00
35224;BME280;21367;51.930;8.112;2023-04-01T11:57:50;99097.00;;;12.11;100.00
35224;BME280;21367;51.930;8.112;2023-04-01T12:03:12;99106.84;;;12.56;100.00
35224;BME280;21367;51.930;8.112;2023-04-01T12:08:31;99112.06;;;12.61;100.00
35224;BME280;21367;51.930;8.112;2023-04-01T12:13:45;99120.28;;;12.21;100.00
35224;BME280;21367;51.930;8.112;2023-04-01T12:18:59;99118.59;;;12.23;100.00
35224;BME280;21367;51.930;8.112;2023-04-01T12:24:27;99117.97;;;12.52;100.00
35224;BME280;21367;51.930;8.112;2023-04-01T12:29:54;99128.41;;;12.67;100.00
35224;BME280;21367;51.930;8.112;2023-04-01T12:35:15;99132.69;;;12.64;100.00
35224;BME280;21367;51.930;8.112;2023-04-01T12:40:28;99137.66;;;13.68;100.00
35224;BME280;21367;51.930;8.112;2023-04-01T12:45:35;99139.25;;;13.44;98.17
35224;BME280;21367;51.930;8.112;2023-04-01T12:51:12;99136.69;;;13.46;97.13
35224;BME280;21367;51.930;8.112;2023-04-01T12:56:31;99146.72;;;13.03;100.00
35224;BME280;21367;51.930;8.112;2023-04-01T13:01:59;99158.13;;;13.29;99.58
35224;BME280;21367;51.930;8.112;2023-04-01T13:07:22;99157.88;;;12.99;98.94
35224;BME280;21367;51.930;8.112;2023-04-01T13:12:45;99169.94;;;13.03;100.00
35224;BME280;21367;51.930;8.112;2023-04-01T13:18:02;99173.47;;;13.15;100.00
35224;BME280;21367;51.930;8.112;2023-04-01T13:23:22;99185.19;;;12.73;100.00
35224;BME280;21367;51.930;8.112;2023-04-01T13:28:30;99182.53;;;12.66;100.00
35224;BME280;21367;51.930;8.112;2023-04-01T13:33:41;99182.03;;;13.07;100.00
35224;BME280;21367;51.930;8.112;2023-04-01T13:39:02;99194.75;;;12.87;100.00
35224;BME280;21367;51.930;8.112;2023-04-01T13:44:12;99190.72;;;13.23;100.00
35224;BME280;21367;51.930;8.112;2023-04-01T13:55:00;99197.66;;;13.27;99.76
35224;BME280;21367;51.930;8.112;2023-04-01T14:00:21;99205.63;;;13.62;96.46
35224;BME280;21367;51.930;8.112;2023-04-01T14:05:36;99204.81;;;13.78;98.99
35224;BME280;21367;51.930;8.112;2023-04-01T14:10:56;99199.78;;;13.98;95.60
35224;BME280;21367;51.930;8.112;2023-04-01T14:16:20;99210.19;;;14.21;91.18
35224;BME280;21367;51.930;8.112;2023-04-01T14:21:37;99219.63;;;14.15;94.46
35224;BME280;21367;51.930;8.112;2023-04-01T14:32:33;99225.41;;;13.66;93.94
35224;BME280;21367;51.930;8.112;2023-04-01T14:37:58;99237.00;;;14.55;90.04
35224;BME280;21367;51.930;8.112;2023-04-01T14:43:38;99244.81;;;14.74;84.99
35224;BME280;21367;51.930;8.112;2023-04-01T14:48:55;99245.69;;;15.33;83.65
35224;BME280;21367;51.930;8.112;2023-04-01T14:54:06;99254.75;;;13.76;89.63
35224;BME280;21367;51.930;8.112;2023-04-01T14:59:15;99252.25;;;13.89;89.09
35224;BME280;21367;51.930;8.112;2023-04-01T15:04:41;99265.84;;;13.62;95.38
35224;BME280;21367;51.930;8.112;2023-04-01T15:09:52;99269.28;;;13.58;94.41
35224;BME280;21367;51.930;8.112;2023-04-01T15:15:16;99280.28;;;13.33;95.80
35224;BME280;21367;51.930;8.112;2023-04-01T15:26:18;99296.63;;;13.38;93.55
35224;BME280;21367;51.930;8.112;2023-04-01T15:31:27;99309.84;;;12.80;95.16
35224;BME280;21367;51.930;8.112;2023-04-01T15:36:40;99313.69;;;13.20;97.22
35224;BME280;21367;51.930;8.112;2023-04-01T15:42:03;99314.41;;;13.04;96.93
35224;BME280;21367;51.930;8.112;2023-04-01T15:47:32;99322.94;;;13.00;100.00
35224;BME280;21367;51.930;8.112;2023-04-01T15:52:42;99335.13;;;12.37;100.00
35224;BME280;21367;51.930;8.112;2023-04-01T15:58:17;99346.75;;;12.73;100.00
35224;BME280;21367;51.930;8.112;2023-04-01T16:03:35;99348.94;;;11.83;100.00
35224;BME280;21367;51.930;8.112;2023-04-01T16:08:45;99359.56;;;12.67;100.00
35224;BME280;21367;51.930;8.112;2023-04-01T16:14:05;99363.00;;;12.02;100.00
35224;BME280;21367;51.930;8.112;2023-04-01T16:19:25;99378.56;;;12.10;100.00
35224;BME280;21367;51.930;8.112;2023-04-01T16:24:39;99385.81;;;11.80;100.00
35224;BME280;21367;51.930;8.112;2023-04-01T16:29:49;99388.84;;;12.08;100.00
35224;BME280;21367;51.930;8.112;2023-04-01T16:35:04;99394.19;;;12.23;100.00
35224;BME280;21367;51.930;8.112;2023-04-01T16:40:23;99406.72;;;11.47;100.00
35224;BME280;21367;51.930;8.112;2023-04-01T16:45:36;99424.44;;;11.32;100.00
35224;BME280;21367;51.930;8.112;2023-04-01T16:50:51;99425.53;;;11.45;100.00
35224;BME280;21367;51.930;8.112;2023-04-01T16:56:06;99440.69;;;11.29;100.00
35224;BME280;21367;51.930;8.112;2023-04-01T17:01:20;99443.09;;;11.20;100.00
35224;BME280;21367;51.930;8.112;2023-04-01T17:06:31;99458.69;;;10.87;100.00
35224;BME280;21367;51.930;8.112;2023-04-01T17:11:39;99473.34;;;10.50;100.00
35224;BME280;21367;51.930;8.112;2023-04-01T17:17:06;99490.84;;;10.30;100.00
35224;BME280;21367;51.930;8.112;2023-04-01T17:22:24;99504.09;;;10.47;100.00
35224;BME280;21367;51.930;8.112;2023-04-01T17:27:39;99524.97;;;9.91;100.00
35224;BME280;21367;51.930;8.112;2023-04-01T17:33:00;99534.25;;;9.86;100.00
35224;BME280;21367;51.930;8.112;2023-04-01T17:38:18;99546.72;;;9.72;100.00
35224;BME280;21367;51.930;8.112;2023-04-01T17:43:31;99567.09;;;9.66;100.00
35224;BME280;21367;51.930;8.112;2023-04-01T17:48:47;99572.03;;;9.92;100.00
35224;BME280;21367;51.930;8.112;2023-04-01T17:53:59;99584.22;;;9.37;100.00
35224;BME280;21367;51.930;8.112;2023-04-01T17:59:16;99598.53;;;9.31;100.00
35224;BME280;21367;51.930;8.112;2023-04-01T18:04:36;99599.75;;;9.13;100.00
35224;BME280;21367;51.930;8.112;2023-04-01T18:09:49;99630.16;;;9.01;100.00
35224;BME280;21367;51.930;8.112;2023-04-01T18:15:15;99634.56;;;8.78;100.00
35224;BME280;21367;51.930;8.112;2023-04-01T18:20:37;99651.94;;;8.88;100.00
35224;BME280;21367;51.930;8.112;2023-04-01T18:25:48;99662.69;;;8.76;100.00
35224;BME280;21367;51.930;8.112;2023-04-01T18:30:56;99688.59;;;8.86;100.00
35224;BME280;21367;51.930;8.112;2023-04-01T18:36:13;99701.97;;;8.77;100.00
35224;BME280;21367;51.930;8.112;2023-04-01T18:41:28;99708.69;;;8.48;100.00
35224;BME280;21367;51.930;8.112;2023-04-01T18:46:39;99733.13;;;8.40;100.00
35224;BME280;21367;51.930;8.112;2023-04-01T18:51:49;99731.41;;;8.39;100.00
35224;BME280;21367;51.930;8.112;2023-04-01T18:57:03;99753.47;;;8.37;100.00
35224;BME280;21367;51.930;8.112;2023-04-01T19:02:18;99770.31;;;8.52;100.00
35224;BME280;21367;51.930;8.112;2023-04-01T19:07:41;99784.78;;;8.52;100.00
35224;BME280;21367;51.930;8.112;2023-04-01T19:12:53;99790.91;;;8.09;100.00
35224;BME280;21367;51.930;8.112;2023-04-01T19:18:19;99808.59;;;8.03;100.00
35224;BME280;21367;51.930;8.112;2023-04-01T19:29:18;99842.88;;;7.85;100.00
35224;BME280;21367;51.930;8.112;2023-04-01T19:34:34;99845.16;;;7.57;100.00
35224;BME280;21367;51.930;8.112;2023-04-01T19:39:48;99864.06;;;7.60;100.00
35224;BME280;21367;51.930;8.112;2023-04-01T19:45:04;99865.06;;;7.43;100.00
35224;BME280;21367;51.930;8.112;2023-04-01T19:50:23;99885.75;;;7.28;100.00
35224;BME280;21367;51.930;8.112;2023-04-01T19:55:37;99894.84;;;7.22;100.00
35224;BME280;21367;51.930;8.112;2023-04-01T20:00:49;99912.03;;;7.26;100.00
35224;BME280;21367;51.930;8.112;2023-04-01T20:06:01;99916.38;;;6.88;100.00
35224;BME280;21367;51.930;8.112;2023-04-01T20:11:30;99927.81;;;6.96;100.00
35224;BME280;21367;51.930;8.112;2023-04-01T20:16:50;99948.84;;;6.90;100.00
35224;BME280;21367;51.930;8.112;2023-04-01T20:21:58;99962.81;;;6.79;100.00
35224;BME280;21367;51.930;8.112;2023-04-01T20:27:09;99970.34;;;6.76;100.00
35224;BME280;21367;51.930;8.112;2023-04-01T20:32:31;99978.56;;;6.51;100.00
35224;BME280;21367;51.930;8.112;2023-04-01T20:37:40;99996.28;;;6.48;100.00
35224;BME280;21367;51.930;8.112;2023-04-01T20:42:57;100010.72;;;6.30;100.00
35224;BME280;21367;51.930;8.112;2023-04-01T20:48:24;100017.06;;;6.38;100.00
35224;BME280;21367;51.930;8.112;2023-04-01T20:53:35;100028.06;;;6.19;100.00
35224;BME280;21367;51.930;8.112;2023-04-01T20:58:51;100040.75;;;6.35;100.00
35224;BME280;21367;51.930;8.112;2023-04-01T21:04:03;100048.72;;;6.41;100.00
35224;BME280;21367;51.930;8.112;2023-04-01T21:09:27;100060.47;;;6.38;100.00
35224;BME280;21367;51.930;8.112;2023-04-01T21:14:56;100066.28;;;6.35;100.00
35224;BME280;21367;51.930;8.112;2023-04-01T21:20:30;100085.16;;;6.21;100.00
35224;BME280;21367;51.930;8.112;2023-04-01T21:25:51;100090.59;;;6.11;100.00
35224;BME280;21367;51.930;8.112;2023-04-01T21:36:40;100127.53;;;6.17;100.00
35224;BME280;21367;51.930;8.112;2023-04-01T21:42:04;100135.47;;;6.07;100.00
35224;BME280;21367;51.930;8.112;2023-04-01T21:47:47;100159.09;;;6.03;100.00
35224;BME280;21367;51.930;8.112;2023-04-01T21:53:09;100168.16;;;5.98;100.00
35224;BME280;21367;51.930;8.112;2023-04-01T21:58:34;100184.59;;;6.03;100.00
35224;BME280;21367;51.930;8.112;2023-04-01T22:03:59;100189.53;;;5.84;100.00
35224;BME280;21367;51.930;8.112;2023-04-01T22:09:18;100196.03;;;5.78;100.00
35224;BME280;21367;51.930;8.112;2023-04-01T22:14:30;100209.41;;;5.58;100.00
35224;BME280;21367;51.930;8.112;2023-04-01T22:19:46;100217.78;;;5.72;100.00
35224;BME280;21367;51.930;8.112;2023-04-01T22:25:02;100228.16;;;5.44;100.00
35224;BME280;21367;51.930;8.112;2023-04-01T22:30:17;100242.88;;;5.33;100.00
35224;BME280;21367;51.930;8.112;2023-04-01T22:35:34;100247.84;;;5.46;100.00
35224;BME280;21367;51.930;8.112;2023-04-01T22:40:46;100268.56;;;5.52;100.00
35224;BME280;21367;51.930;8.112;2023-04-01T22:46:17;100272.97;;;5.55;100.00
35224;BME280;21367;51.930;8.112;2023-04-01T22:51:39;100288.75;;;5.18;100.00
35224;BME280;21367;51.930;8.112;2023-04-01T22:56:51;100290.44;;;5.18;100.00
35224;BME280;21367;51.930;8.112;2023-04-01T23:01:59;100301.13;;;5.27;100.00
35224;BME280;21367;51.930;8.112;2023-04-01T23:07:30;100308.66;;;5.10;100.00
35224;BME280;21367;51.930;8.112;2023-04-01T23:12:38;100313.84;;;5.42;100.00
35224;BME280;21367;51.930;8.112;2023-04-01T23:17:59;100336.34;;;5.19;100.00
35224;BME280;21367;51.930;8.112;2023-04-01T23:23:20;100346.28;;;5.00;100.00
35224;BME280;21367;51.930;8.112;2023-04-01T23:28:43;100368.28;;;4.84;100.00
35224;BME280;21367;51.930;8.112;2023-04-01T23:33:53;100365.47;;;4.80;100.00
35224;BME280;21367;51.930;8.112;2023-04-01T23:39:05;100386.66;;;4.66;100.00
35224;BME280;21367;51.930;8.112;2023-04-01T23:44:12;100387.84;;;4.71;100.00
35224;BME280;21367;51.930;8.112;2023-04-01T23:49:19;100401.25;;;4.68;100.00
35224;BME280;21367;51.930;8.112;2023-04-01T23:54:31;100405.66;;;4.71;100.00
35224;BME280;21367;51.930;8.112;2023-04-01T23:59:36;100420.19;;;4.86;100.00
